sensor_id;sensor_type;location;lat;lon;timestamp;temperature;humidity
20091;DHT22;10205;49.678;6.560;2022-10-26T00:00:44;17.10;66.70
20091;DHT22;10205;49.678;6.560;2022-10-26T00:03:13;17.10;66.70
20091;DHT22;10205;49.678;6.560;2022-10-26T00:05:40;17.10;66.80
20091;DHT22;10205;49.678;6.560;2022-10-26T00:08:08;17.10;66.70
20091;DHT22;10205;49.678;6.560;2022-10-26T00:10:36;17.10;66.60
20091;DHT22;10205;49.678;6.560;2022-10-26T00:13:07;17.10;66.70
20091;DHT22;10205;49.678;6.560;2022-10-26T00:15:39;17.10;66.50
20091;DHT22;10205;49.678;6.560;2022-10-26T00:18:08;17.20;66.50
20091;DHT22;10205;49.678;6.560;2022-10-26T00:20:36;17.20;66.50
20091;DHT22;10205;49.678;6.560;2022-10-26T00:23:03;17.20;66.50
20091;DHT22;10205;49.678;6.560;2022-10-26T00:25:31;17.20;66.40
20091;DHT22;10205;49.678;6.560;2022-10-26T00:27:58;17.20;66.30
20091;DHT22;10205;49.678;6.560;2022-10-26T00:30:25;17.20;66.30
20091;DHT22;10205;49.678;6.560;2022-10-26T00:32:52;17.20;66.40
20091;DHT22;10205;49.678;6.560;2022-10-26T00:35:19;17.20;66.40
20091;DHT22;10205;49.678;6.560;2022-10-26T00:37:53;17.20;66.50
20091;DHT22;10205;49.678;6.560;2022-10-26T00:40:20;17.20;66.60
20091;DHT22;10205;49.678;6.560;2022-10-26T00:42:48;17.10;66.50
20091;DHT22;10205;49.678;6.560;2022-10-26T00:45:19;17.10;66.50
20091;DHT22;10205;49.678;6.560;2022-10-26T00:47:52;17.10;66.70
20091;DHT22;10205;49.678;6.560;2022-10-26T00:50:27;17.00;66.70
20091;DHT22;10205;49.678;6.560;2022-10-26T00:52:58;17.00;66.70
20091;DHT22;10205;49.678;6.560;2022-10-26T00:55:31;17.00;66.70
20091;DHT22;10205;49.678;6.560;2022-10-26T00:58:01;17.00;66.90
20091;DHT22;10205;49.678;6.560;2022-10-26T01:00:31;17.00;67.00
20091;DHT22;10205;49.678;6.560;2022-10-26T01:03:01;16.90;67.70
20091;DHT22;10205;49.678;6.560;2022-10-26T01:05:33;16.90;67.00
20091;DHT22;10205;49.678;6.560;2022-10-26T01:08:06;16.90;67.20
20091;DHT22;10205;49.678;6.560;2022-10-26T01:10:35;16.90;67.10
20091;DHT22;10205;49.678;6.560;2022-10-26T01:13:03;16.90;67.10
20091;DHT22;10205;49.678;6.560;2022-10-26T01:15:40;16.90;67.20
20091;DHT22;10205;49.678;6.560;2022-10-26T01:18:20;16.80;67.40
20091;DHT22;10205;49.678;6.560;2022-10-26T01:27:23;16.80;67.60
20091;DHT22;10205;49.678;6.560;2022-10-26T01:30:28;16.80;67.40
20091;DHT22;10205;49.678;6.560;2022-10-26T01:33:11;16.80;67.80
20091;DHT22;10205;49.678;6.560;2022-10-26T01:35:52;16.80;67.60
20091;DHT22;10205;49.678;6.560;2022-10-26T01:38:34;16.80;67.80
20091;DHT22;10205;49.678;6.560;2022-10-26T01:41:14;16.70;67.70
20091;DHT22;10205;49.678;6.560;2022-10-26T01:43:51;16.70;67.80
20091;DHT22;10205;49.678;6.560;2022-10-26T01:46:25;16.70;68.00
20091;DHT22;10205;49.678;6.560;2022-10-26T01:48:58;16.60;67.90
20091;DHT22;10205;49.678;6.560;2022-10-26T01:51:28;16.70;68.00
20091;DHT22;10205;49.678;6.560;2022-10-26T01:53:57;16.60;68.00
20091;DHT22;10205;49.678;6.560;2022-10-26T01:56:27;16.60;68.20
20091;DHT22;10205;49.678;6.560;2022-10-26T01:59:23;16.60;68.20
20091;DHT22;10205;49.678;6.560;2022-10-26T02:05:43;16.60;68.40
20091;DHT22;10205;49.678;6.560;2022-10-26T02:08:25;16.60;68.30
20091;DHT22;10205;49.678;6.560;2022-10-26T02:11:08;16.70;68.10
20091;DHT22;10205;49.678;6.560;2022-10-26T02:13:46;16.60;68.30
20091;DHT22;10205;49.678;6.560;2022-10-26T02:16:23;16.70;68.40
20091;DHT22;10205;49.678;6.560;2022-10-26T02:18:58;16.70;68.10
20091;DHT22;10205;49.678;6.560;2022-10-26T02:21:34;16.70;68.40
20091;DHT22;10205;49.678;6.560;2022-10-26T02:24:06;16.70;68.40
20091;DHT22;10205;49.678;6.560;2022-10-26T02:26:40;16.70;68.40
20091;DHT22;10205;49.678;6.560;2022-10-26T02:29:12;16.70;68.10
20091;DHT22;10205;49.678;6.560;2022-10-26T02:31:45;16.70;68.00
20091;DHT22;10205;49.678;6.560;2022-10-26T02:34:17;16.70;68.00
20091;DHT22;10205;49.678;6.560;2022-10-26T02:36:50;16.80;68.00
20091;DHT22;10205;49.678;6.560;2022-10-26T02:39:20;16.80;67.90
20091;DHT22;10205;49.678;6.560;2022-10-26T02:41:49;16.80;67.80
20091;DHT22;10205;49.678;6.560;2022-10-26T02:44:23;16.80;67.80
20091;DHT22;10205;49.678;6.560;2022-10-26T02:46:53;16.80;67.70
20091;DHT22;10205;49.678;6.560;2022-10-26T02:49:23;16.80;68.20
20091;DHT22;10205;49.678;6.560;2022-10-26T02:52:00;16.80;67.90
20091;DHT22;10205;49.678;6.560;2022-10-26T02:54:34;16.80;67.80
20091;DHT22;10205;49.678;6.560;2022-10-26T02:57:10;16.80;67.60
20091;DHT22;10205;49.678;6.560;2022-10-26T02:59:42;16.80;67.60
20091;DHT22;10205;49.678;6.560;2022-10-26T03:02:13;16.80;67.90
20091;DHT22;10205;49.678;6.560;2022-10-26T03:04:41;16.80;67.60
20091;DHT22;10205;49.678;6.560;2022-10-26T03:07:10;16.80;67.50
20091;DHT22;10205;49.678;6.560;2022-10-26T03:09:38;16.80;68.00
20091;DHT22;10205;49.678;6.560;2022-10-26T03:12:05;16.90;67.80
20091;DHT22;10205;49.678;6.560;2022-10-26T03:14:32;16.80;67.60
20091;DHT22;10205;49.678;6.560;2022-10-26T03:16:59;16.80;67.80
20091;DHT22;10205;49.678;6.560;2022-10-26T03:19:26;16.80;67.40
20091;DHT22;10205;49.678;6.560;2022-10-26T03:21:53;16.80;67.40
20091;DHT22;10205;49.678;6.560;2022-10-26T03:24:22;16.90;67.50
20091;DHT22;10205;49.678;6.560;2022-10-26T03:26:49;16.80;67.70
20091;DHT22;10205;49.678;6.560;2022-10-26T03:29:17;16.80;67.50
20091;DHT22;10205;49.678;6.560;2022-10-26T03:31:44;16.80;67.40
20091;DHT22;10205;49.678;6.560;2022-10-26T03:34:11;16.90;67.60
20091;DHT22;10205;49.678;6.560;2022-10-26T03:36:38;16.80;68.40
20091;DHT22;10205;49.678;6.560;2022-10-26T03:39:06;16.80;67.60
20091;DHT22;10205;49.678;6.560;2022-10-26T03:41:34;16.80;67.50
20091;DHT22;10205;49.678;6.560;2022-10-26T03:44:04;16.80;67.50
20091;DHT22;10205;49.678;6.560;2022-10-26T03:46:31;16.80;67.50
20091;DHT22;10205;49.678;6.560;2022-10-26T03:48:58;16.80;67.60
20091;DHT22;10205;49.678;6.560;2022-10-26T03:51:26;16.80;67.50
20091;DHT22;10205;49.678;6.560;2022-10-26T03:53:53;16.80;67.60
20091;DHT22;10205;49.678;6.560;2022-10-26T03:56:20;16.80;67.50
20091;DHT22;10205;49.678;6.560;2022-10-26T03:58:49;16.70;67.50
20091;DHT22;10205;49.678;6.560;2022-10-26T04:01:16;16.70;67.50
20091;DHT22;10205;49.678;6.560;2022-10-26T04:03:43;16.70;67.40
20091;DHT22;10205;49.678;6.560;2022-10-26T04:06:11;16.70;67.40
20091;DHT22;10205;49.678;6.560;2022-10-26T04:08:38;16.70;67.40
20091;DHT22;10205;49.678;6.560;2022-10-26T04:11:05;16.70;67.40
20091;DHT22;10205;49.678;6.560;2022-10-26T04:13:32;16.70;67.50
20091;DHT22;10205;49.678;6.560;2022-10-26T04:16:01;16.70;67.50
20091;DHT22;10205;49.678;6.560;2022-10-26T04:18:28;16.70;67.40
20091;DHT22;10205;49.678;6.560;2022-10-26T04:20:55;16.70;67.50
20091;DHT22;10205;49.678;6.560;2022-10-26T04:23:26;16.70;67.40
20091;DHT22;10205;49.678;6.560;2022-10-26T04:25:53;16.70;67.40
20091;DHT22;10205;49.678;6.560;2022-10-26T04:28:20;16.70;67.30
20091;DHT22;10205;49.678;6.560;2022-10-26T04:30:47;16.70;67.40
20091;DHT22;10205;49.678;6.560;2022-10-26T04:33:15;16.70;67.40
20091;DHT22;10205;49.678;6.560;2022-10-26T04:35:43;16.70;67.40
20091;DHT22;10205;49.678;6.560;2022-10-26T04:38:10;16.70;67.50
20091;DHT22;10205;49.678;6.560;2022-10-26T04:40:38;16.70;67.50
20091;DHT22;10205;49.678;6.560;2022-10-26T04:43:05;16.70;67.50
20091;DHT22;10205;49.678;6.560;2022-10-26T04:45:32;16.60;67.40
20091;DHT22;10205;49.678;6.560;2022-10-26T04:48:04;16.60;67.50
20091;DHT22;10205;49.678;6.560;2022-10-26T04:50:34;16.70;67.70
20091;DHT22;10205;49.678;6.560;2022-10-26T04:53:02;16.60;68.30
20091;DHT22;10205;49.678;6.560;2022-10-26T04:55:29;16.60;67.50
20091;DHT22;10205;49.678;6.560;2022-10-26T04:57:56;16.60;67.50
20091;DHT22;10205;49.678;6.560;2022-10-26T05:00:23;16.60;67.50
20091;DHT22;10205;49.678;6.560;2022-10-26T05:02:51;16.60;67.50
20091;DHT22;10205;49.678;6.560;2022-10-26T05:05:18;16.60;67.50
20091;DHT22;10205;49.678;6.560;2022-10-26T05:07:54;16.60;68.50
20091;DHT22;10205;49.678;6.560;2022-10-26T05:10:21;16.60;68.00
20091;DHT22;10205;49.678;6.560;2022-10-26T05:12:50;16.60;68.00
20091;DHT22;10205;49.678;6.560;2022-10-26T05:15:20;16.50;68.10
20091;DHT22;10205;49.678;6.560;2022-10-26T05:17:54;16.50;67.90
20091;DHT22;10205;49.678;6.560;2022-10-26T05:20:22;16.50;68.00
20091;DHT22;10205;49.678;6.560;2022-10-26T05:22:55;16.50;67.90
20091;DHT22;10205;49.678;6.560;2022-10-26T05:25:23;16.50;68.20
20091;DHT22;10205;49.678;6.560;2022-10-26T05:27:50;16.50;68.20
20091;DHT22;10205;49.678;6.560;2022-10-26T05:30:18;16.50;68.00
20091;DHT22;10205;49.678;6.560;2022-10-26T05:32:52;16.40;67.90
20091;DHT22;10205;49.678;6.560;2022-10-26T05:35:20;16.50;68.00
20091;DHT22;10205;49.678;6.560;2022-10-26T05:37:47;16.50;68.00
20091;DHT22;10205;49.678;6.560;2022-10-26T05:40:16;16.50;68.10
20091;DHT22;10205;49.678;6.560;2022-10-26T05:42:43;16.40;68.00
20091;DHT22;10205;49.678;6.560;2022-10-26T05:45:13;16.40;67.90
20091;DHT22;10205;49.678;6.560;2022-10-26T05:47:42;16.40;67.90
20091;DHT22;10205;49.678;6.560;2022-10-26T05:50:11;16.40;67.90
20091;DHT22;10205;49.678;6.560;2022-10-26T05:52:39;16.40;67.90
20091;DHT22;10205;49.678;6.560;2022-10-26T05:55:08;16.40;67.80
20091;DHT22;10205;49.678;6.560;2022-10-26T05:57:39;16.40;67.90
20091;DHT22;10205;49.678;6.560;2022-10-26T06:00:08;16.40;67.90
20091;DHT22;10205;49.678;6.560;2022-10-26T06:02:47;16.50;67.90
20091;DHT22;10205;49.678;6.560;2022-10-26T06:05:25;16.40;67.90
20091;DHT22;10205;49.678;6.560;2022-10-26T06:07:55;16.40;67.90
20091;DHT22;10205;49.678;6.560;2022-10-26T06:10:23;16.50;68.40
20091;DHT22;10205;49.678;6.560;2022-10-26T06:12:53;16.40;68.30
20091;DHT22;10205;49.678;6.560;2022-10-26T06:15:21;16.40;68.20
20091;DHT22;10205;49.678;6.560;2022-10-26T06:17:57;16.40;68.20
20091;DHT22;10205;49.678;6.560;2022-10-26T06:20:41;16.40;68.40
20091;DHT22;10205;49.678;6.560;2022-10-26T06:23:36;16.30;68.40
20091;DHT22;10205;49.678;6.560;2022-10-26T06:26:13;16.40;68.80
20091;DHT22;10205;49.678;6.560;2022-10-26T06:29:02;16.40;68.80
20091;DHT22;10205;49.678;6.560;2022-10-26T06:31:38;16.40;68.70
20091;DHT22;10205;49.678;6.560;2022-10-26T06:34:05;16.40;68.30
20091;DHT22;10205;49.678;6.560;2022-10-26T06:36:32;16.30;68.30
20091;DHT22;10205;49.678;6.560;2022-10-26T06:39:03;16.40;68.50
20091;DHT22;10205;49.678;6.560;2022-10-26T06:41:35;16.40;68.40
20091;DHT22;10205;49.678;6.560;2022-10-26T06:44:05;16.30;68.50
20091;DHT22;10205;49.678;6.560;2022-10-26T06:46:40;16.30;68.80
20091;DHT22;10205;49.678;6.560;2022-10-26T06:49:17;16.40;68.60
20091;DHT22;10205;49.678;6.560;2022-10-26T06:51:51;16.30;68.50
20091;DHT22;10205;49.678;6.560;2022-10-26T06:54:29;16.30;68.60
20091;DHT22;10205;49.678;6.560;2022-10-26T06:57:08;16.30;68.50
20091;DHT22;10205;49.678;6.560;2022-10-26T06:59:41;16.30;68.60
20091;DHT22;10205;49.678;6.560;2022-10-26T07:02:12;16.30;68.50
20091;DHT22;10205;49.678;6.560;2022-10-26T07:04:40;16.30;68.70
20091;DHT22;10205;49.678;6.560;2022-10-26T07:07:08;16.30;68.60
20091;DHT22;10205;49.678;6.560;2022-10-26T07:09:37;16.30;68.90
20091;DHT22;10205;49.678;6.560;2022-10-26T07:12:04;16.30;69.00
20091;DHT22;10205;49.678;6.560;2022-10-26T07:14:31;16.30;68.80
20091;DHT22;10205;49.678;6.560;2022-10-26T07:17:00;16.30;69.00
20091;DHT22;10205;49.678;6.560;2022-10-26T07:19:27;16.20;69.90
20091;DHT22;10205;49.678;6.560;2022-10-26T07:21:55;16.20;68.90
20091;DHT22;10205;49.678;6.560;2022-10-26T07:24:23;16.20;69.00
20091;DHT22;10205;49.678;6.560;2022-10-26T07:26:52;16.20;69.00
20091;DHT22;10205;49.678;6.560;2022-10-26T07:29:20;16.20;69.30
20091;DHT22;10205;49.678;6.560;2022-10-26T07:31:48;16.20;69.40
20091;DHT22;10205;49.678;6.560;2022-10-26T07:34:16;16.20;69.40
20091;DHT22;10205;49.678;6.560;2022-10-26T07:36:44;16.20;69.90
20091;DHT22;10205;49.678;6.560;2022-10-26T07:39:11;16.20;70.20
20091;DHT22;10205;49.678;6.560;2022-10-26T07:41:38;16.20;70.10
20091;DHT22;10205;49.678;6.560;2022-10-26T07:44:07;16.20;70.00
20091;DHT22;10205;49.678;6.560;2022-10-26T07:46:34;16.20;70.60
20091;DHT22;10205;49.678;6.560;2022-10-26T07:49:01;16.20;70.50
20091;DHT22;10205;49.678;6.560;2022-10-26T07:51:30;16.30;70.60
20091;DHT22;10205;49.678;6.560;2022-10-26T07:53:57;16.30;70.70
20091;DHT22;10205;49.678;6.560;2022-10-26T07:56:25;16.30;70.90
20091;DHT22;10205;49.678;6.560;2022-10-26T07:58:53;16.30;71.60
20091;DHT22;10205;49.678;6.560;2022-10-26T08:01:20;16.30;72.30
20091;DHT22;10205;49.678;6.560;2022-10-26T08:03:51;16.40;72.60
20091;DHT22;10205;49.678;6.560;2022-10-26T08:06:19;16.40;73.00
20091;DHT22;10205;49.678;6.560;2022-10-26T08:08:48;16.40;73.20
20091;DHT22;10205;49.678;6.560;2022-10-26T08:11:17;16.40;74.80
20091;DHT22;10205;49.678;6.560;2022-10-26T08:13:44;16.50;74.10
20091;DHT22;10205;49.678;6.560;2022-10-26T08:16:12;16.60;73.80
20091;DHT22;10205;49.678;6.560;2022-10-26T08:18:39;16.60;73.70
20091;DHT22;10205;49.678;6.560;2022-10-26T08:21:09;16.70;74.00
20091;DHT22;10205;49.678;6.560;2022-10-26T08:23:37;16.70;74.10
20091;DHT22;10205;49.678;6.560;2022-10-26T08:26:08;16.80;73.60
20091;DHT22;10205;49.678;6.560;2022-10-26T08:28:36;16.90;73.60
20091;DHT22;10205;49.678;6.560;2022-10-26T08:31:04;16.90;74.30
20091;DHT22;10205;49.678;6.560;2022-10-26T08:33:32;17.00;74.30
20091;DHT22;10205;49.678;6.560;2022-10-26T08:36:01;17.10;73.80
20091;DHT22;10205;49.678;6.560;2022-10-26T08:38:30;17.10;73.50
20091;DHT22;10205;49.678;6.560;2022-10-26T08:41:07;17.20;73.20
20091;DHT22;10205;49.678;6.560;2022-10-26T08:43:38;17.20;73.80
20091;DHT22;10205;49.678;6.560;2022-10-26T08:46:11;17.20;73.10
20091;DHT22;10205;49.678;6.560;2022-10-26T08:48:44;17.30;73.80
20091;DHT22;10205;49.678;6.560;2022-10-26T08:51:18;17.30;74.10
20091;DHT22;10205;49.678;6.560;2022-10-26T08:53:51;17.30;72.90
20091;DHT22;10205;49.678;6.560;2022-10-26T08:56:25;17.40;73.00
20091;DHT22;10205;49.678;6.560;2022-10-26T08:58:57;17.40;72.50
20091;DHT22;10205;49.678;6.560;2022-10-26T09:01:29;17.50;72.80
20091;DHT22;10205;49.678;6.560;2022-10-26T09:03:57;17.50;73.10
20091;DHT22;10205;49.678;6.560;2022-10-26T09:06:34;17.60;73.80
20091;DHT22;10205;49.678;6.560;2022-10-26T09:09:16;17.60;73.70
20091;DHT22;10205;49.678;6.560;2022-10-26T09:11:59;17.60;72.50
20091;DHT22;10205;49.678;6.560;2022-10-26T09:14:41;17.70;73.00
20091;DHT22;10205;49.678;6.560;2022-10-26T09:17:25;17.70;73.90
20091;DHT22;10205;49.678;6.560;2022-10-26T09:20:11;17.80;73.70
20091;DHT22;10205;49.678;6.560;2022-10-26T09:22:55;17.80;73.90
20091;DHT22;10205;49.678;6.560;2022-10-26T09:25:36;17.90;73.40
20091;DHT22;10205;49.678;6.560;2022-10-26T09:28:13;17.90;72.30
20091;DHT22;10205;49.678;6.560;2022-10-26T09:30:44;17.90;72.50
20091;DHT22;10205;49.678;6.560;2022-10-26T09:33:15;18.00;72.30
20091;DHT22;10205;49.678;6.560;2022-10-26T09:35:47;18.00;72.30
20091;DHT22;10205;49.678;6.560;2022-10-26T09:38:21;18.10;72.20
20091;DHT22;10205;49.678;6.560;2022-10-26T09:40:57;18.20;71.70
20091;DHT22;10205;49.678;6.560;2022-10-26T09:43:34;18.20;72.20
20091;DHT22;10205;49.678;6.560;2022-10-26T09:46:15;18.20;72.50
20091;DHT22;10205;49.678;6.560;2022-10-26T09:48:48;18.30;73.30
20091;DHT22;10205;49.678;6.560;2022-10-26T09:51:19;18.30;73.80
20091;DHT22;10205;49.678;6.560;2022-10-26T09:53:49;18.40;73.20
20091;DHT22;10205;49.678;6.560;2022-10-26T09:56:17;18.40;72.90
20091;DHT22;10205;49.678;6.560;2022-10-26T09:58:51;18.50;72.60
20091;DHT22;10205;49.678;6.560;2022-10-26T10:01:30;18.60;72.60
20091;DHT22;10205;49.678;6.560;2022-10-26T10:04:09;18.70;72.30
20091;DHT22;10205;49.678;6.560;2022-10-26T10:06:46;18.70;72.70
20091;DHT22;10205;49.678;6.560;2022-10-26T10:09:15;18.80;72.00
20091;DHT22;10205;49.678;6.560;2022-10-26T10:11:45;18.90;72.40
20091;DHT22;10205;49.678;6.560;2022-10-26T10:14:22;18.90;72.50
20091;DHT22;10205;49.678;6.560;2022-10-26T10:16:54;19.00;72.30
20091;DHT22;10205;49.678;6.560;2022-10-26T10:19:25;19.10;71.70
20091;DHT22;10205;49.678;6.560;2022-10-26T10:21:56;19.20;71.60
20091;DHT22;10205;49.678;6.560;2022-10-26T10:24:28;19.20;71.70
20091;DHT22;10205;49.678;6.560;2022-10-26T10:26:59;19.30;71.20
20091;DHT22;10205;49.678;6.560;2022-10-26T10:29:31;19.40;70.90
20091;DHT22;10205;49.678;6.560;2022-10-26T10:32:01;19.40;71.20
20091;DHT22;10205;49.678;6.560;2022-10-26T10:34:30;19.50;70.90
20091;DHT22;10205;49.678;6.560;2022-10-26T10:37:00;19.60;70.40
20091;DHT22;10205;49.678;6.560;2022-10-26T10:39:39;19.60;71.20
20091;DHT22;10205;49.678;6.560;2022-10-26T10:42:17;19.70;70.30
20091;DHT22;10205;49.678;6.560;2022-10-26T10:44:52;19.80;71.00
20091;DHT22;10205;49.678;6.560;2022-10-26T10:47:23;19.90;70.50
20091;DHT22;10205;49.678;6.560;2022-10-26T10:49:57;20.00;70.10
20091;DHT22;10205;49.678;6.560;2022-10-26T10:52:28;20.00;69.60
20091;DHT22;10205;49.678;6.560;2022-10-26T10:55:13;20.10;69.60
20091;DHT22;10205;49.678;6.560;2022-10-26T10:57:54;20.20;69.70
20091;DHT22;10205;49.678;6.560;2022-10-26T11:00:35;20.20;70.00
20091;DHT22;10205;49.678;6.560;2022-10-26T11:03:14;20.30;69.40
20091;DHT22;10205;49.678;6.560;2022-10-26T11:06:10;20.30;69.20
20091;DHT22;10205;49.678;6.560;2022-10-26T11:08:45;20.40;69.20
20091;DHT22;10205;49.678;6.560;2022-10-26T11:11:19;20.50;69.00
20091;DHT22;10205;49.678;6.560;2022-10-26T11:13:54;20.60;69.20
20091;DHT22;10205;49.678;6.560;2022-10-26T11:16:31;20.60;68.70
20091;DHT22;10205;49.678;6.560;2022-10-26T11:19:05;20.60;68.60
20091;DHT22;10205;49.678;6.560;2022-10-26T11:21:47;20.70;68.80
20091;DHT22;10205;49.678;6.560;2022-10-26T11:24:23;20.80;68.50
20091;DHT22;10205;49.678;6.560;2022-10-26T11:26:56;20.80;68.60
20091;DHT22;10205;49.678;6.560;2022-10-26T11:29:32;20.90;68.20
20091;DHT22;10205;49.678;6.560;2022-10-26T11:32:14;20.90;68.40
20091;DHT22;10205;49.678;6.560;2022-10-26T11:34:50;21.00;67.70
20091;DHT22;10205;49.678;6.560;2022-10-26T11:37:29;21.00;67.70
20091;DHT22;10205;49.678;6.560;2022-10-26T11:40:07;21.10;67.70
20091;DHT22;10205;49.678;6.560;2022-10-26T11:42:52;21.10;67.50
20091;DHT22;10205;49.678;6.560;2022-10-26T11:45:33;21.20;67.20
20091;DHT22;10205;49.678;6.560;2022-10-26T11:48:13;21.30;67.80
20091;DHT22;10205;49.678;6.560;2022-10-26T11:50:49;21.30;67.20
20091;DHT22;10205;49.678;6.560;2022-10-26T11:53:25;21.30;67.70
20091;DHT22;10205;49.678;6.560;2022-10-26T11:55:55;21.40;67.60
20091;DHT22;10205;49.678;6.560;2022-10-26T11:58:25;21.40;67.40
20091;DHT22;10205;49.678;6.560;2022-10-26T12:00:57;21.50;66.90
20091;DHT22;10205;49.678;6.560;2022-10-26T12:03:32;21.60;67.20
20091;DHT22;10205;49.678;6.560;2022-10-26T12:06:02;21.60;66.70
20091;DHT22;10205;49.678;6.560;2022-10-26T12:08:32;21.60;66.60
20091;DHT22;10205;49.678;6.560;2022-10-26T12:11:08;21.70;66.40
20091;DHT22;10205;49.678;6.560;2022-10-26T12:13:46;21.70;66.60
20091;DHT22;10205;49.678;6.560;2022-10-26T12:16:20;21.80;66.30
20091;DHT22;10205;49.678;6.560;2022-10-26T12:19:11;21.80;66.00
20091;DHT22;10205;49.678;6.560;2022-10-26T12:21:44;21.80;65.90
20091;DHT22;10205;49.678;6.560;2022-10-26T12:24:27;21.90;66.10
20091;DHT22;10205;49.678;6.560;2022-10-26T12:27:01;21.90;65.80
20091;DHT22;10205;49.678;6.560;2022-10-26T12:29:34;22.00;65.70
20091;DHT22;10205;49.678;6.560;2022-10-26T12:35:36;22.10;64.80
20091;DHT22;10205;49.678;6.560;2022-10-26T12:41:24;22.20;64.80
20091;DHT22;10205;49.678;6.560;2022-10-26T12:44:01;22.20;65.00
20091;DHT22;10205;49.678;6.560;2022-10-26T12:46:51;22.30;64.20
20091;DHT22;10205;49.678;6.560;2022-10-26T12:52:32;22.30;64.20
20091;DHT22;10205;49.678;6.560;2022-10-26T12:59:06;22.40;63.70
20091;DHT22;10205;49.678;6.560;2022-10-26T13:08:44;22.50;62.90
20091;DHT22;10205;49.678;6.560;2022-10-26T13:11:17;22.50;62.30
20091;DHT22;10205;49.678;6.560;2022-10-26T13:13:52;22.60;62.40
20091;DHT22;10205;49.678;6.560;2022-10-26T13:16:23;22.50;61.90
20091;DHT22;10205;49.678;6.560;2022-10-26T13:18:55;22.60;62.40
20091;DHT22;10205;49.678;6.560;2022-10-26T13:21:25;22.60;63.30
20091;DHT22;10205;49.678;6.560;2022-10-26T13:23:58;22.60;62.50
20091;DHT22;10205;49.678;6.560;2022-10-26T13:26:31;22.70;62.50
20091;DHT22;10205;49.678;6.560;2022-10-26T13:29:19;22.70;60.90
20091;DHT22;10205;49.678;6.560;2022-10-26T13:31:56;22.70;61.80
20091;DHT22;10205;49.678;6.560;2022-10-26T13:34:28;22.70;61.80
20091;DHT22;10205;49.678;6.560;2022-10-26T13:37:04;22.80;60.00
20091;DHT22;10205;49.678;6.560;2022-10-26T13:39:41;22.80;60.50
20091;DHT22;10205;49.678;6.560;2022-10-26T13:42:13;22.90;60.90
20091;DHT22;10205;49.678;6.560;2022-10-26T13:44:49;22.90;60.20
20091;DHT22;10205;49.678;6.560;2022-10-26T13:47:24;22.90;60.30
20091;DHT22;10205;49.678;6.560;2022-10-26T13:49:59;23.00;60.00
20091;DHT22;10205;49.678;6.560;2022-10-26T13:52:34;23.00;59.90
20091;DHT22;10205;49.678;6.560;2022-10-26T13:55:09;23.00;60.50
20091;DHT22;10205;49.678;6.560;2022-10-26T13:57:47;23.00;59.40
20091;DHT22;10205;49.678;6.560;2022-10-26T14:00:34;23.00;59.70
20091;DHT22;10205;49.678;6.560;2022-10-26T14:03:11;23.10;60.10
20091;DHT22;10205;49.678;6.560;2022-10-26T14:05:42;23.10;59.80
20091;DHT22;10205;49.678;6.560;2022-10-26T14:08:17;23.10;59.00
20091;DHT22;10205;49.678;6.560;2022-10-26T14:10:51;23.10;59.70
20091;DHT22;10205;49.678;6.560;2022-10-26T14:13:23;23.10;59.60
20091;DHT22;10205;49.678;6.560;2022-10-26T14:15:52;23.20;59.50
20091;DHT22;10205;49.678;6.560;2022-10-26T14:18:23;23.20;58.80
20091;DHT22;10205;49.678;6.560;2022-10-26T14:20:57;23.20;58.50
20091;DHT22;10205;49.678;6.560;2022-10-26T14:23:31;23.20;58.00
20091;DHT22;10205;49.678;6.560;2022-10-26T14:26:00;23.20;58.60
20091;DHT22;10205;49.678;6.560;2022-10-26T14:28:29;23.20;59.10
20091;DHT22;10205;49.678;6.560;2022-10-26T14:31:10;23.20;59.00
20091;DHT22;10205;49.678;6.560;2022-10-26T14:33:38;23.20;57.90
20091;DHT22;10205;49.678;6.560;2022-10-26T14:36:07;23.20;58.50
20091;DHT22;10205;49.678;6.560;2022-10-26T14:38:41;23.20;57.70
20091;DHT22;10205;49.678;6.560;2022-10-26T14:41:11;23.20;57.80
20091;DHT22;10205;49.678;6.560;2022-10-26T14:43:42;23.20;58.10
20091;DHT22;10205;49.678;6.560;2022-10-26T14:46:13;23.20;58.40
20091;DHT22;10205;49.678;6.560;2022-10-26T14:48:50;23.20;57.90
20091;DHT22;10205;49.678;6.560;2022-10-26T14:51:26;23.20;57.90
20091;DHT22;10205;49.678;6.560;2022-10-26T14:53:57;23.20;58.10
20091;DHT22;10205;49.678;6.560;2022-10-26T14:56:29;23.20;58.00
20091;DHT22;10205;49.678;6.560;2022-10-26T14:59:10;23.20;58.40
20091;DHT22;10205;49.678;6.560;2022-10-26T15:02:00;23.20;58.10
20091;DHT22;10205;49.678;6.560;2022-10-26T15:04:56;23.20;58.30
20091;DHT22;10205;49.678;6.560;2022-10-26T15:07:33;23.20;58.20
20091;DHT22;10205;49.678;6.560;2022-10-26T15:10:03;23.20;58.10
20091;DHT22;10205;49.678;6.560;2022-10-26T15:12:32;23.20;58.30
20091;DHT22;10205;49.678;6.560;2022-10-26T15:15:19;23.20;57.80
20091;DHT22;10205;49.678;6.560;2022-10-26T15:17:52;23.20;58.80
20091;DHT22;10205;49.678;6.560;2022-10-26T15:20:22;23.20;58.60
20091;DHT22;10205;49.678;6.560;2022-10-26T15:22:55;23.20;58.00
20091;DHT22;10205;49.678;6.560;2022-10-26T15:25:27;23.10;58.00
20091;DHT22;10205;49.678;6.560;2022-10-26T15:28:08;23.20;57.90
20091;DHT22;10205;49.678;6.560;2022-10-26T15:30:36;23.10;58.60
20091;DHT22;10205;49.678;6.560;2022-10-26T15:33:17;23.20;58.80
20091;DHT22;10205;49.678;6.560;2022-10-26T15:35:46;23.10;58.40
20091;DHT22;10205;49.678;6.560;2022-10-26T15:38:16;23.10;58.00
20091;DHT22;10205;49.678;6.560;2022-10-26T15:40:43;23.10;58.30
20091;DHT22;10205;49.678;6.560;2022-10-26T15:43:10;23.10;58.20
20091;DHT22;10205;49.678;6.560;2022-10-26T15:45:45;23.00;58.70
20091;DHT22;10205;49.678;6.560;2022-10-26T15:48:18;23.00;58.30
20091;DHT22;10205;49.678;6.560;2022-10-26T15:50:50;23.00;58.70
20091;DHT22;10205;49.678;6.560;2022-10-26T15:53:20;23.00;58.10
20091;DHT22;10205;49.678;6.560;2022-10-26T15:55:51;22.90;58.30
20091;DHT22;10205;49.678;6.560;2022-10-26T15:58:19;22.90;58.50
20091;DHT22;10205;49.678;6.560;2022-10-26T16:00:47;22.90;58.70
20091;DHT22;10205;49.678;6.560;2022-10-26T16:03:17;22.90;58.50
20091;DHT22;10205;49.678;6.560;2022-10-26T16:05:48;22.90;58.90
20091;DHT22;10205;49.678;6.560;2022-10-26T16:08:20;22.80;58.60
20091;DHT22;10205;49.678;6.560;2022-10-26T16:10:47;22.80;58.50
20091;DHT22;10205;49.678;6.560;2022-10-26T16:13:16;22.80;58.40
20091;DHT22;10205;49.678;6.560;2022-10-26T16:15:43;22.80;58.30
20091;DHT22;10205;49.678;6.560;2022-10-26T16:18:12;22.70;58.10
20091;DHT22;10205;49.678;6.560;2022-10-26T16:20:40;22.70;58.90
20091;DHT22;10205;49.678;6.560;2022-10-26T16:23:10;22.60;58.80
20091;DHT22;10205;49.678;6.560;2022-10-26T16:25:42;22.60;58.80
20091;DHT22;10205;49.678;6.560;2022-10-26T16:28:11;22.60;59.00
20091;DHT22;10205;49.678;6.560;2022-10-26T16:30:41;22.60;59.30
20091;DHT22;10205;49.678;6.560;2022-10-26T16:33:09;22.60;60.00